Liverpool, NY (13088)

12:50 PM EDT on June 25, 2017 (GMT -0400)
Liverpool Public Library | | Change Station

Elev 420 ft 43.10 °N, 76.21 °W | Updated 2 minutes ago

Mostly Cloudy
Mostly Cloudy
71.5 °F
Feels Like 77 °F
N
4.0
Wind Variable Wind from WSW
Gusts 5.0 mph

Today
High -- | Low -- °F
--% Chance of Precip.
Yesterday
High -- | Low -- °F
Precip. -- in
Pressure 29.94 in
Visibility 10.0 miles
Clouds Few 5000 ft
Scattered Clouds 11000 ft
Scattered Clouds 18000 ft
Heat Index 77 °F
Dew Point 51 °F
Humidity 49%
Rainfall 0.00 in
Snow Depth Not available.
5:26 AM 8:48 PM
Waxing Crescent, 4% visible
METAR KSYR 251554Z 26016KT 10SM FEW050 SCT110 SCT180 23/12 A2995 RMK AO2 SLP137 T02330122 VISNO NW $
Pressure 29.94 in
Visibility 10.0 miles
Clouds Few 5000 ft
Scattered Clouds 11000 ft
Scattered Clouds 18000 ft
Heat Index 77 °F
Dew Point 51 °F
Humidity 49%
Rainfall 0.00 in
Snow Depth Not available.
5:26 AM 8:48 PM
Waxing Crescent, 4% visible
METAR KSYR 251554Z 26016KT 10SM FEW050 SCT110 SCT180 23/12 A2995 RMK AO2 SLP137 T02330122 VISNO NW $

Get Severe Weather Alerts

Thanks for signing up!

Be on the lookout for a verification email in your inbox.

You'll start receiving the daily forecast at 6 AM.

×

10-Day Weather Forecast

Almanac

Astronomy

Jun. 25, 2017 Rise Set
Actual Time
Civil Twilight
Nautical Twilight
Astronomical Twilight
Moon
Length of Visible Light
Length of Day
Tomorrow will be .
, % of the Moon is Illuminated

Today's Extremes

State Highs State Lows

Community

WunderPhotos

Category 6

Welcome to Category 6. This is the collective home for Weather Underground's featured writeups by Dr. Jeff Masters (right), Bob Henson (left), Chris Burt, and other regular contributors.

Nearby

Air Quality

  Air Quality AQ Index Pollutant
Not available.

Snow Depth

Station Depth Elevation

Earthquake Activity

City Distance Mag. Time & Date
Minimum magnitude displayed is 2.5.

Coastal Water Temperatures

Place Temperature

Stations

Nearby Weather Stations

Station Location Temp. Windchill Dew Point Humidity Wind Precip. Elev Updated Type
                   

Watches & Warnings

There are currently no watches in effect.